TRA12B LEBL-EHAM
Flight info
| Callsign | TRA12B |
|---|---|
| Flight time | 1h 53m |
| Altitude | 34000 |
| Route | OLOXO DCT OKABI DCT TOU DCT ADABI DCT BOKNO UN858 VANAD UN874 BAMES UT191 PODEM UN873 BAZOS DCT LUMIL DCT BELOB UY873 DENUT |
| Aircraft | A320/M-SDE3FGHIRWY/LB1 |
Departure
| Time | 2026-05-04 12:32 |
|---|---|
| Airport | Josep Tarradellas Barcelona-El Prat Airport (LEBL) |
Arrival
| Time | 2026-05-04 14:25 |
|---|---|
| Airport | Amsterdam Airport Schiphol (EHAM) |
| Time | Latitude | Longitude | Altitude | Speed | Heading |
|---|---|---|---|---|---|
| 2026-05-04 12:08 | 41.29100 | 2.07794 | 19 ft | 0 kts | 155° |
| 2026-05-04 12:21 | 41.29106 | 2.07791 | 20 ft | 2 kts | 155° |
| 2026-05-04 12:21 | 41.29124 | 2.07780 | 19 ft | 3 kts | 155° |
| 2026-05-04 12:21 | 41.29140 | 2.07771 | 21 ft | 3 kts | 152° |
| 2026-05-04 12:21 | 41.29155 | 2.07756 | 20 ft | 3 kts | 121° |
| 2026-05-04 12:22 | 41.29161 | 2.07733 | 20 ft | 3 kts | 88° |
| 2026-05-04 12:22 | 41.29158 | 2.07708 | 19 ft | 2 kts | 68° |
| 2026-05-04 12:22 | 41.29155 | 2.07697 | 19 ft | 1 kts | 65° |
| 2026-05-04 12:22 | 41.29154 | 2.07696 | 21 ft | 0 kts | 65° |
| 2026-05-04 12:24 | 41.29155 | 2.07697 | 19 ft | 3 kts | 65° |
| 2026-05-04 12:24 | 41.29199 | 2.07828 | 20 ft | 17 kts | 66° |
| 2026-05-04 12:24 | 41.29252 | 2.07983 | 19 ft | 19 kts | 65° |
| 2026-05-04 12:25 | 41.29309 | 2.08152 | 20 ft | 21 kts | 65° |
| 2026-05-04 12:25 | 41.29364 | 2.08310 | 19 ft | 17 kts | 66° |
| 2026-05-04 12:25 | 41.29309 | 2.08416 | 20 ft | 16 kts | 155° |
| 2026-05-04 12:25 | 41.29207 | 2.08478 | 20 ft | 17 kts | 156° |
| 2026-05-04 12:26 | 41.29109 | 2.08536 | 16 ft | 16 kts | 155° |
| 2026-05-04 12:26 | 41.29002 | 2.08600 | 18 ft | 17 kts | 156° |
| 2026-05-04 12:26 | 41.28904 | 2.08659 | 17 ft | 11 kts | 155° |
| 2026-05-04 12:26 | 41.28866 | 2.08743 | 17 ft | 12 kts | 79° |
| 2026-05-04 12:27 | 41.28905 | 2.08851 | 16 ft | 14 kts | 66° |
| 2026-05-04 12:27 | 41.28948 | 2.08977 | 18 ft | 16 kts | 64° |
| 2026-05-04 12:27 | 41.28996 | 2.09118 | 18 ft | 18 kts | 66° |
| 2026-05-04 12:27 | 41.29049 | 2.09273 | 18 ft | 19 kts | 65° |
| 2026-05-04 12:28 | 41.29107 | 2.09444 | 18 ft | 21 kts | 66° |
| 2026-05-04 12:28 | 41.29164 | 2.09617 | 18 ft | 21 kts | 65° |
| 2026-05-04 12:28 | 41.29225 | 2.09783 | 17 ft | 20 kts | 66° |
| 2026-05-04 12:28 | 41.29285 | 2.09957 | 17 ft | 21 kts | 60° |
| 2026-05-04 12:29 | 41.29318 | 2.10106 | 17 ft | 12 kts | 111° |
| 2026-05-04 12:29 | 41.29303 | 2.10162 | 16 ft | 0 kts | 109° |
| 2026-05-04 12:30 | 41.29302 | 2.10168 | 15 ft | 2 kts | 109° |
| 2026-05-04 12:30 | 41.29292 | 2.10205 | 14 ft | 6 kts | 109° |
| 2026-05-04 12:31 | 41.29272 | 2.10270 | 13 ft | 9 kts | 117° |
| 2026-05-04 12:31 | 41.29221 | 2.10311 | 15 ft | 8 kts | 190° |
| 2026-05-04 12:31 | 41.29191 | 2.10246 | 16 ft | 10 kts | 245° |
| 2026-05-04 12:31 | 41.29083 | 2.09927 | 21 ft | 72 kts | 245° |
| 2026-05-04 12:32 | 41.28787 | 2.09071 | 17 ft | 128 kts | 245° |
| 2026-05-04 12:32 | 41.27856 | 2.06649 | 753 ft | 155 kts | 224° |
| 2026-05-04 12:32 | 41.26912 | 2.06025 | 1241 ft | 158 kts | 195° |
| 2026-05-04 12:33 | 41.25759 | 2.05705 | 1465 ft | 181 kts | 191° |
| 2026-05-04 12:33 | 41.24442 | 2.05377 | 1712 ft | 204 kts | 192° |
| 2026-05-04 12:33 | 41.23010 | 2.05008 | 2218 ft | 214 kts | 192° |
| 2026-05-04 12:33 | 41.21552 | 2.04613 | 3027 ft | 214 kts | 193° |
| 2026-05-04 12:34 | 41.20107 | 2.04199 | 3803 ft | 216 kts | 194° |
| 2026-05-04 12:34 | 41.18625 | 2.03706 | 4554 ft | 217 kts | 204° |
| 2026-05-04 12:34 | 41.17499 | 2.02447 | 5242 ft | 219 kts | 236° |
| 2026-05-04 12:34 | 41.16666 | 2.00746 | 5999 ft | 220 kts | 235° |
| 2026-05-04 12:35 | 41.15799 | 1.99070 | 6733 ft | 221 kts | 233° |
| 2026-05-04 12:35 | 41.14903 | 1.97402 | 7443 ft | 223 kts | 232° |
| 2026-05-04 12:35 | 41.13980 | 1.95735 | 8175 ft | 224 kts | 232° |
| 2026-05-04 12:35 | 41.13210 | 1.93924 | 8854 ft | 232 kts | 248° |
| 2026-05-04 12:36 | 41.12715 | 1.91802 | 9361 ft | 245 kts | 251° |
| 2026-05-04 12:36 | 41.12228 | 1.89650 | 10093 ft | 247 kts | 251° |
| 2026-05-04 12:36 | 41.11732 | 1.87452 | 10801 ft | 249 kts | 252° |
| 2026-05-04 12:36 | 41.11528 | 1.85152 | 11482 ft | 255 kts | 269° |
| 2026-05-04 12:37 | 41.11878 | 1.82753 | 11831 ft | 280 kts | 286° |
| 2026-05-04 12:37 | 41.12616 | 1.80251 | 11985 ft | 303 kts | 287° |
| 2026-05-04 12:37 | 41.13520 | 1.77599 | 12116 ft | 329 kts | 298° |
| 2026-05-04 12:37 | 41.15070 | 1.75232 | 12427 ft | 351 kts | 317° |
| 2026-05-04 12:38 | 41.17165 | 1.73474 | 12994 ft | 360 kts | 327° |
| 2026-05-04 12:38 | 41.19376 | 1.71864 | 13636 ft | 365 kts | 330° |
| 2026-05-04 12:38 | 41.21752 | 1.70664 | 14200 ft | 374 kts | 341° |
| 2026-05-04 12:38 | 41.24332 | 1.70054 | 14771 ft | 380 kts | 350° |
| 2026-05-04 12:39 | 41.26970 | 1.69651 | 15342 ft | 383 kts | 350° |
| 2026-05-04 12:39 | 41.29626 | 1.69243 | 15915 ft | 386 kts | 349° |
| 2026-05-04 12:39 | 41.32307 | 1.68825 | 16492 ft | 388 kts | 349° |
| 2026-05-04 12:39 | 41.34999 | 1.68403 | 17067 ft | 391 kts | 349° |
| 2026-05-04 12:40 | 41.37714 | 1.67980 | 17642 ft | 395 kts | 349° |
| 2026-05-04 12:40 | 41.40466 | 1.67548 | 18226 ft | 399 kts | 349° |
| 2026-05-04 12:40 | 41.43240 | 1.67112 | 18740 ft | 402 kts | 349° |
| 2026-05-04 12:40 | 41.46034 | 1.66672 | 19242 ft | 406 kts | 349° |
| 2026-05-04 12:41 | 41.48815 | 1.66234 | 19745 ft | 410 kts | 348° |
| 2026-05-04 12:41 | 41.51670 | 1.65786 | 20234 ft | 414 kts | 348° |
| 2026-05-04 12:41 | 41.54546 | 1.65332 | 20725 ft | 417 kts | 348° |
| 2026-05-04 12:41 | 41.57452 | 1.64874 | 21225 ft | 421 kts | 348° |
| 2026-05-04 12:42 | 41.60378 | 1.64416 | 21700 ft | 425 kts | 348° |
| 2026-05-04 12:42 | 41.63325 | 1.63958 | 22167 ft | 429 kts | 348° |
| 2026-05-04 12:42 | 41.66270 | 1.63502 | 22629 ft | 432 kts | 348° |
| 2026-05-04 12:42 | 41.69273 | 1.63040 | 23106 ft | 436 kts | 348° |
| 2026-05-04 12:43 | 41.72310 | 1.62573 | 23549 ft | 440 kts | 348° |
| 2026-05-04 12:43 | 41.75372 | 1.62097 | 23942 ft | 443 kts | 348° |
| 2026-05-04 12:43 | 41.78448 | 1.61614 | 24342 ft | 445 kts | 348° |
| 2026-05-04 12:43 | 41.81495 | 1.61133 | 24711 ft | 448 kts | 348° |
| 2026-05-04 12:44 | 41.84611 | 1.60640 | 25089 ft | 450 kts | 348° |
| 2026-05-04 12:44 | 41.87729 | 1.60148 | 25456 ft | 453 kts | 348° |
| 2026-05-04 12:44 | 41.90878 | 1.59649 | 25823 ft | 455 kts | 348° |
| 2026-05-04 12:44 | 41.94036 | 1.59146 | 26174 ft | 457 kts | 348° |
| 2026-05-04 12:45 | 41.97166 | 1.58648 | 26508 ft | 460 kts | 347° |
| 2026-05-04 12:45 | 42.00353 | 1.58144 | 26859 ft | 462 kts | 348° |
| 2026-05-04 12:45 | 42.03563 | 1.57637 | 27214 ft | 464 kts | 348° |
| 2026-05-04 12:45 | 42.06779 | 1.57133 | 27559 ft | 467 kts | 348° |
| 2026-05-04 12:46 | 42.10018 | 1.56623 | 27897 ft | 469 kts | 348° |
| 2026-05-04 12:46 | 42.13277 | 1.56106 | 28262 ft | 472 kts | 348° |
| 2026-05-04 12:46 | 42.16551 | 1.55583 | 28601 ft | 474 kts | 347° |
| 2026-05-04 12:46 | 42.19835 | 1.55055 | 28940 ft | 477 kts | 347° |
| 2026-05-04 12:47 | 42.23099 | 1.54533 | 29205 ft | 479 kts | 347° |
| 2026-05-04 12:47 | 42.26415 | 1.54005 | 29538 ft | 481 kts | 347° |
| 2026-05-04 12:47 | 42.29746 | 1.53476 | 29975 ft | 482 kts | 347° |
| 2026-05-04 12:47 | 42.33086 | 1.52947 | 30423 ft | 481 kts | 347° |
| 2026-05-04 12:48 | 42.36408 | 1.52417 | 30809 ft | 481 kts | 347° |
| 2026-05-04 12:48 | 42.39736 | 1.51883 | 31155 ft | 482 kts | 347° |
| 2026-05-04 12:48 | 42.43069 | 1.51348 | 31549 ft | 481 kts | 347° |
| 2026-05-04 12:48 | 42.46356 | 1.50816 | 31927 ft | 481 kts | 347° |
| 2026-05-04 12:49 | 42.49675 | 1.50279 | 32328 ft | 480 kts | 346° |
| 2026-05-04 12:49 | 42.52995 | 1.49746 | 32692 ft | 480 kts | 346° |
| 2026-05-04 12:49 | 42.56310 | 1.49216 | 33025 ft | 480 kts | 346° |
| 2026-05-04 12:49 | 42.59631 | 1.48686 | 33415 ft | 480 kts | 346° |
| 2026-05-04 12:50 | 42.62946 | 1.48154 | 33826 ft | 479 kts | 346° |
| 2026-05-04 12:50 | 42.69591 | 1.47082 | 33928 ft | 483 kts | 346° |
| 2026-05-04 12:51 | 42.76286 | 1.45999 | 33921 ft | 484 kts | 346° |
| 2026-05-04 12:51 | 42.82975 | 1.44918 | 33921 ft | 484 kts | 346° |
| 2026-05-04 12:52 | 42.88540 | 1.44022 | 33921 ft | 484 kts | 346° |
| 2026-05-04 12:52 | 42.95240 | 1.42939 | 33915 ft | 484 kts | 346° |
| 2026-05-04 12:53 | 43.01932 | 1.41852 | 33933 ft | 484 kts | 346° |
| 2026-05-04 12:53 | 43.08628 | 1.40765 | 33933 ft | 484 kts | 346° |
| 2026-05-04 12:54 | 43.15319 | 1.39677 | 33931 ft | 483 kts | 346° |
| 2026-05-04 12:54 | 43.21967 | 1.38586 | 33929 ft | 483 kts | 346° |
| 2026-05-04 12:55 | 43.28643 | 1.37486 | 33937 ft | 482 kts | 347° |
| 2026-05-04 12:55 | 43.35277 | 1.36401 | 33934 ft | 482 kts | 346° |
| 2026-05-04 12:56 | 43.41938 | 1.35307 | 33927 ft | 482 kts | 346° |
| 2026-05-04 12:56 | 43.48594 | 1.34207 | 33943 ft | 481 kts | 347° |
| 2026-05-04 12:57 | 43.55237 | 1.33104 | 33940 ft | 481 kts | 346° |
| 2026-05-04 12:57 | 43.61887 | 1.32003 | 33936 ft | 480 kts | 347° |
| 2026-05-04 12:58 | 43.68522 | 1.30898 | 33945 ft | 479 kts | 346° |
| 2026-05-04 12:58 | 43.75082 | 1.29409 | 33940 ft | 476 kts | 343° |
| 2026-05-04 12:59 | 43.81529 | 1.27605 | 33936 ft | 475 kts | 342° |
| 2026-05-04 12:59 | 43.88018 | 1.25802 | 33946 ft | 476 kts | 343° |
| 2026-05-04 13:00 | 43.94535 | 1.24109 | 33942 ft | 476 kts | 344° |
| 2026-05-04 13:00 | 44.01055 | 1.22450 | 33942 ft | 476 kts | 344° |
| 2026-05-04 13:01 | 44.07527 | 1.20781 | 33952 ft | 475 kts | 344° |
| 2026-05-04 13:01 | 44.14034 | 1.19077 | 33940 ft | 475 kts | 344° |
| 2026-05-04 13:02 | 44.20545 | 1.17367 | 33936 ft | 475 kts | 344° |
| 2026-05-04 13:02 | 44.27052 | 1.15672 | 33941 ft | 475 kts | 344° |
| 2026-05-04 13:03 | 44.33520 | 1.13986 | 33957 ft | 476 kts | 344° |
| 2026-05-04 13:03 | 44.40060 | 1.12266 | 33917 ft | 478 kts | 344° |
| 2026-05-04 13:04 | 44.46609 | 1.10529 | 33927 ft | 479 kts | 344° |
| 2026-05-04 13:04 | 44.53173 | 1.08787 | 33929 ft | 480 kts | 344° |
| 2026-05-04 13:05 | 44.59746 | 1.07048 | 33936 ft | 481 kts | 344° |
| 2026-05-04 13:05 | 44.66316 | 1.05308 | 33939 ft | 480 kts | 345° |
| 2026-05-04 13:06 | 44.72841 | 1.03570 | 33939 ft | 480 kts | 345° |
| 2026-05-04 13:06 | 44.79405 | 1.01821 | 33938 ft | 480 kts | 345° |
| 2026-05-04 13:07 | 44.85976 | 1.00063 | 33937 ft | 480 kts | 345° |
| 2026-05-04 13:07 | 44.92502 | 0.98304 | 33939 ft | 480 kts | 345° |
| 2026-05-04 13:08 | 44.99071 | 0.96542 | 33948 ft | 480 kts | 345° |
| 2026-05-04 13:08 | 45.05636 | 0.94779 | 33943 ft | 480 kts | 345° |
| 2026-05-04 13:09 | 45.12208 | 0.93007 | 33940 ft | 479 kts | 345° |
| 2026-05-04 13:09 | 45.18719 | 0.91243 | 33937 ft | 479 kts | 345° |
| 2026-05-04 13:10 | 45.25267 | 0.89463 | 33947 ft | 479 kts | 345° |
| 2026-05-04 13:10 | 45.31817 | 0.87691 | 33943 ft | 479 kts | 345° |
| 2026-05-04 13:11 | 45.38362 | 0.85908 | 33950 ft | 479 kts | 345° |
| 2026-05-04 13:11 | 45.44918 | 0.84106 | 33949 ft | 478 kts | 345° |
| 2026-05-04 13:12 | 45.51421 | 0.82329 | 33949 ft | 477 kts | 345° |
| 2026-05-04 13:12 | 45.57962 | 0.80536 | 33954 ft | 477 kts | 346° |
| 2026-05-04 13:13 | 45.64449 | 0.78750 | 33952 ft | 476 kts | 346° |
| 2026-05-04 13:13 | 45.70955 | 0.76962 | 33947 ft | 475 kts | 346° |
| 2026-05-04 13:14 | 45.77451 | 0.75168 | 33941 ft | 475 kts | 346° |
| 2026-05-04 13:14 | 45.83899 | 0.73382 | 33935 ft | 475 kts | 346° |
| 2026-05-04 13:15 | 45.90436 | 0.71565 | 33937 ft | 476 kts | 346° |
| 2026-05-04 13:15 | 45.96893 | 0.69766 | 33950 ft | 476 kts | 346° |
| 2026-05-04 13:16 | 46.03396 | 0.67950 | 33941 ft | 476 kts | 346° |
| 2026-05-04 13:16 | 46.09897 | 0.66137 | 33941 ft | 476 kts | 346° |
| 2026-05-04 13:17 | 46.16401 | 0.64315 | 33943 ft | 476 kts | 346° |
| 2026-05-04 13:17 | 46.22784 | 0.62522 | 33945 ft | 477 kts | 346° |
| 2026-05-04 13:18 | 46.29305 | 0.60694 | 33948 ft | 477 kts | 346° |
| 2026-05-04 13:18 | 46.35829 | 0.58851 | 33947 ft | 477 kts | 346° |
| 2026-05-04 13:19 | 46.42305 | 0.57018 | 33958 ft | 477 kts | 346° |
| 2026-05-04 13:19 | 46.48829 | 0.55162 | 33957 ft | 477 kts | 346° |
| 2026-05-04 13:20 | 46.55411 | 0.53806 | 33959 ft | 480 kts | 358° |
| 2026-05-04 13:20 | 46.62047 | 0.55026 | 33973 ft | 482 kts | 12° |
| 2026-05-04 13:21 | 46.68563 | 0.57182 | 33964 ft | 481 kts | 12° |
| 2026-05-04 13:21 | 46.75099 | 0.59330 | 33954 ft | 480 kts | 12° |
| 2026-05-04 13:22 | 46.81627 | 0.61487 | 33952 ft | 480 kts | 12° |
| 2026-05-04 13:22 | 46.88143 | 0.63643 | 33946 ft | 480 kts | 12° |
| 2026-05-04 13:23 | 46.94657 | 0.65813 | 33947 ft | 480 kts | 12° |
| 2026-05-04 13:23 | 47.01175 | 0.67988 | 33955 ft | 480 kts | 12° |
| 2026-05-04 13:24 | 47.07707 | 0.69473 | 33952 ft | 478 kts | 2° |
| 2026-05-04 13:24 | 47.14360 | 0.70154 | 33948 ft | 477 kts | 2° |
| 2026-05-04 13:25 | 47.24281 | 0.71216 | 33964 ft | 477 kts | 3° |
| 2026-05-04 13:25 | 47.30899 | 0.71915 | 33967 ft | 476 kts | 3° |
| 2026-05-04 13:26 | 47.37508 | 0.72599 | 33964 ft | 476 kts | 3° |
| 2026-05-04 13:26 | 47.44112 | 0.73285 | 33966 ft | 475 kts | 3° |
| 2026-05-04 13:27 | 47.50613 | 0.74468 | 33961 ft | 474 kts | 14° |
| 2026-05-04 13:27 | 47.56897 | 0.77456 | 33958 ft | 474 kts | 19° |
| 2026-05-04 13:28 | 47.63166 | 0.80542 | 33963 ft | 475 kts | 19° |
| 2026-05-04 13:28 | 47.69427 | 0.83632 | 33957 ft | 473 kts | 19° |
| 2026-05-04 13:29 | 47.75684 | 0.86727 | 33932 ft | 473 kts | 19° |
| 2026-05-04 13:29 | 47.81930 | 0.89823 | 33949 ft | 473 kts | 19° |
| 2026-05-04 13:30 | 47.88144 | 0.92919 | 33952 ft | 473 kts | 19° |
| 2026-05-04 13:30 | 47.94379 | 0.96069 | 33957 ft | 473 kts | 19° |
| 2026-05-04 13:31 | 48.00613 | 0.99244 | 33961 ft | 473 kts | 19° |
| 2026-05-04 13:31 | 48.06845 | 1.02427 | 33961 ft | 473 kts | 19° |
| 2026-05-04 13:32 | 48.13037 | 1.05582 | 33961 ft | 473 kts | 19° |
| 2026-05-04 13:32 | 48.19270 | 1.08757 | 33965 ft | 473 kts | 19° |
| 2026-05-04 13:33 | 48.25502 | 1.11925 | 33966 ft | 472 kts | 19° |
| 2026-05-04 13:33 | 48.31728 | 1.15099 | 33971 ft | 472 kts | 19° |
| 2026-05-04 13:34 | 48.37959 | 1.18285 | 33970 ft | 472 kts | 19° |
| 2026-05-04 13:34 | 48.44148 | 1.21474 | 33970 ft | 472 kts | 19° |
| 2026-05-04 13:35 | 48.53482 | 1.26283 | 33975 ft | 472 kts | 19° |
| 2026-05-04 13:36 | 48.59709 | 1.29461 | 33979 ft | 472 kts | 19° |
| 2026-05-04 13:36 | 48.65902 | 1.32562 | 33950 ft | 472 kts | 19° |
| 2026-05-04 13:37 | 48.72151 | 1.35696 | 33951 ft | 473 kts | 19° |
| 2026-05-04 13:37 | 48.78397 | 1.38850 | 33958 ft | 473 kts | 19° |
| 2026-05-04 13:38 | 48.84649 | 1.42028 | 33960 ft | 474 kts | 19° |
| 2026-05-04 13:38 | 48.90903 | 1.45213 | 33968 ft | 474 kts | 19° |
| 2026-05-04 13:39 | 48.97195 | 1.48342 | 33970 ft | 475 kts | 15° |
| 2026-05-04 13:39 | 49.03667 | 1.50043 | 33978 ft | 476 kts | 9° |
| 2026-05-04 13:40 | 49.10222 | 1.51560 | 33982 ft | 476 kts | 9° |
| 2026-05-04 13:40 | 49.16778 | 1.53090 | 33977 ft | 477 kts | 9° |
| 2026-05-04 13:41 | 49.22191 | 1.54667 | 33982 ft | 477 kts | 18° |
| 2026-05-04 13:41 | 49.28144 | 1.58924 | 33980 ft | 471 kts | 37° |
| 2026-05-04 13:42 | 49.35442 | 1.68875 | 33969 ft | 468 kts | 46° |
| 2026-05-04 13:42 | 49.40166 | 1.75786 | 33966 ft | 469 kts | 46° |
| 2026-05-04 13:43 | 49.44863 | 1.82673 | 33943 ft | 469 kts | 46° |
| 2026-05-04 13:43 | 49.49592 | 1.89635 | 33956 ft | 471 kts | 46° |
| 2026-05-04 13:44 | 49.54658 | 1.96060 | 33961 ft | 473 kts | 38° |
| 2026-05-04 13:44 | 49.59976 | 2.02068 | 33962 ft | 474 kts | 38° |
| 2026-05-04 13:45 | 49.65296 | 2.08074 | 33961 ft | 474 kts | 38° |
| 2026-05-04 13:45 | 49.70585 | 2.14069 | 33958 ft | 474 kts | 38° |
| 2026-05-04 13:46 | 49.75906 | 2.20133 | 33958 ft | 474 kts | 38° |
| 2026-05-04 13:46 | 49.81210 | 2.26210 | 33929 ft | 474 kts | 39° |
| 2026-05-04 13:47 | 49.86487 | 2.32266 | 33937 ft | 475 kts | 39° |
| 2026-05-04 13:47 | 49.91801 | 2.38375 | 33957 ft | 476 kts | 39° |
| 2026-05-04 13:48 | 49.97115 | 2.44514 | 33967 ft | 476 kts | 39° |
| 2026-05-04 13:48 | 50.02437 | 2.50664 | 33974 ft | 476 kts | 39° |
| 2026-05-04 13:49 | 50.07756 | 2.56828 | 33976 ft | 476 kts | 39° |
| 2026-05-04 13:49 | 50.13038 | 2.62973 | 33975 ft | 476 kts | 39° |
| 2026-05-04 13:50 | 50.18358 | 2.69178 | 33979 ft | 477 kts | 39° |
| 2026-05-04 13:50 | 50.23675 | 2.75398 | 33976 ft | 477 kts | 39° |
| 2026-05-04 13:51 | 50.28958 | 2.81586 | 33955 ft | 477 kts | 39° |
| 2026-05-04 13:51 | 50.34265 | 2.87820 | 33967 ft | 477 kts | 39° |
| 2026-05-04 13:52 | 50.42278 | 2.97095 | 33979 ft | 479 kts | 33° |
| 2026-05-04 13:53 | 50.48124 | 3.02115 | 33979 ft | 479 kts | 29° |
| 2026-05-04 13:53 | 50.54014 | 3.07072 | 33981 ft | 480 kts | 29° |
| 2026-05-04 13:54 | 50.62842 | 3.14530 | 33980 ft | 480 kts | 29° |
| 2026-05-04 13:55 | 50.71674 | 3.22054 | 33775 ft | 481 kts | 29° |
| 2026-05-04 13:55 | 50.77631 | 3.27053 | 31985 ft | 487 kts | 29° |
| 2026-05-04 13:55 | 50.80592 | 3.29502 | 31844 ft | 473 kts | 28° |
| 2026-05-04 13:56 | 50.83485 | 3.31893 | 31465 ft | 466 kts | 28° |
| 2026-05-04 13:56 | 50.86351 | 3.34271 | 30900 ft | 464 kts | 28° |
| 2026-05-04 13:56 | 50.92037 | 3.39022 | 29753 ft | 460 kts | 29° |
| 2026-05-04 13:57 | 50.94851 | 3.41385 | 29198 ft | 455 kts | 29° |
| 2026-05-04 13:57 | 50.97636 | 3.43735 | 28670 ft | 451 kts | 29° |
| 2026-05-04 13:58 | 51.05838 | 3.50666 | 27130 ft | 439 kts | 28° |
| 2026-05-04 13:58 | 51.11188 | 3.55184 | 26171 ft | 432 kts | 28° |
| 2026-05-04 13:58 | 51.13830 | 3.57423 | 25698 ft | 429 kts | 28° |
| 2026-05-04 13:59 | 51.16450 | 3.59646 | 25237 ft | 425 kts | 28° |
| 2026-05-04 13:59 | 51.19020 | 3.61832 | 24789 ft | 423 kts | 28° |
| 2026-05-04 13:59 | 51.24480 | 3.65196 | 23876 ft | 417 kts | 9° |
| 2026-05-04 14:00 | 51.27360 | 3.65645 | 23330 ft | 415 kts | 359° |
| 2026-05-04 14:00 | 51.32882 | 3.67441 | 22318 ft | 411 kts | 28° |
| 2026-05-04 14:00 | 51.35399 | 3.69580 | 21846 ft | 408 kts | 28° |
| 2026-05-04 14:01 | 51.37922 | 3.71650 | 21414 ft | 405 kts | 27° |
| 2026-05-04 14:01 | 51.40431 | 3.73633 | 20992 ft | 401 kts | 26° |
| 2026-05-04 14:01 | 51.45423 | 3.77455 | 20116 ft | 394 kts | 25° |
| 2026-05-04 14:02 | 51.47895 | 3.79343 | 19674 ft | 390 kts | 26° |
| 2026-05-04 14:02 | 51.50333 | 3.81218 | 19211 ft | 387 kts | 26° |
| 2026-05-04 14:02 | 51.52719 | 3.83059 | 18789 ft | 384 kts | 25° |
| 2026-05-04 14:02 | 51.55122 | 3.84916 | 18326 ft | 382 kts | 25° |
| 2026-05-04 14:03 | 51.57503 | 3.86763 | 17846 ft | 377 kts | 25° |
| 2026-05-04 14:03 | 51.59855 | 3.88593 | 17310 ft | 375 kts | 25° |
| 2026-05-04 14:03 | 51.62190 | 3.90412 | 16801 ft | 372 kts | 25° |
| 2026-05-04 14:03 | 51.64512 | 3.92222 | 16290 ft | 369 kts | 25° |
| 2026-05-04 14:04 | 51.69092 | 3.95806 | 15300 ft | 363 kts | 25° |
| 2026-05-04 14:04 | 51.71363 | 3.97582 | 14802 ft | 361 kts | 25° |
| 2026-05-04 14:04 | 51.73617 | 3.99347 | 14337 ft | 358 kts | 25° |
| 2026-05-04 14:05 | 51.78060 | 4.02840 | 13326 ft | 354 kts | 25° |
| 2026-05-04 14:05 | 51.80264 | 4.04574 | 12826 ft | 351 kts | 25° |
| 2026-05-04 14:05 | 51.82453 | 4.06295 | 12315 ft | 349 kts | 25° |
| 2026-05-04 14:06 | 51.84636 | 4.08001 | 11837 ft | 346 kts | 25° |
| 2026-05-04 14:06 | 51.86795 | 4.09698 | 11361 ft | 344 kts | 25° |
| 2026-05-04 14:06 | 51.88916 | 4.11370 | 11124 ft | 335 kts | 26° |
| 2026-05-04 14:06 | 51.90956 | 4.13064 | 10990 ft | 323 kts | 32° |
| 2026-05-04 14:07 | 51.92687 | 4.15281 | 10869 ft | 312 kts | 42° |
| 2026-05-04 14:07 | 51.94277 | 4.17612 | 10666 ft | 305 kts | 42° |
| 2026-05-04 14:07 | 51.95845 | 4.19901 | 10356 ft | 302 kts | 42° |
| 2026-05-04 14:07 | 51.97383 | 4.22140 | 10038 ft | 300 kts | 42° |
| 2026-05-04 14:08 | 51.98918 | 4.24375 | 9969 ft | 294 kts | 42° |
| 2026-05-04 14:08 | 52.00445 | 4.26600 | 9976 ft | 295 kts | 42° |
| 2026-05-04 14:08 | 52.01978 | 4.28837 | 9977 ft | 295 kts | 42° |
| 2026-05-04 14:08 | 52.03505 | 4.31066 | 9994 ft | 295 kts | 42° |
| 2026-05-04 14:09 | 52.06543 | 4.35518 | 8902 ft | 293 kts | 42° |
| 2026-05-04 14:09 | 52.08038 | 4.37707 | 8784 ft | 288 kts | 42° |
| 2026-05-04 14:10 | 52.11021 | 4.42092 | 8592 ft | 288 kts | 42° |
| 2026-05-04 14:10 | 52.12507 | 4.44284 | 8503 ft | 288 kts | 42° |
| 2026-05-04 14:10 | 52.13994 | 4.46478 | 8395 ft | 288 kts | 42° |
| 2026-05-04 14:10 | 52.15468 | 4.48651 | 8293 ft | 287 kts | 42° |
| 2026-05-04 14:11 | 52.16949 | 4.50834 | 8190 ft | 287 kts | 42° |
| 2026-05-04 14:11 | 52.20008 | 4.54968 | 7987 ft | 285 kts | 25° |
| 2026-05-04 14:11 | 52.21844 | 4.56080 | 7884 ft | 287 kts | 17° |
| 2026-05-04 14:12 | 52.23774 | 4.57048 | 7781 ft | 286 kts | 17° |
| 2026-05-04 14:12 | 52.25511 | 4.58507 | 7674 ft | 286 kts | 39° |
| 2026-05-04 14:12 | 52.28024 | 4.63520 | 7477 ft | 285 kts | 53° |
| 2026-05-04 14:13 | 52.29100 | 4.65893 | 7384 ft | 285 kts | 53° |
| 2026-05-04 14:13 | 52.29939 | 4.67743 | 7312 ft | 283 kts | 53° |
| 2026-05-04 14:13 | 52.31092 | 4.70285 | 7218 ft | 273 kts | 53° |
| 2026-05-04 14:13 | 52.32207 | 4.72742 | 7118 ft | 264 kts | 53° |
| 2026-05-04 14:14 | 52.33278 | 4.75109 | 7026 ft | 255 kts | 53° |
| 2026-05-04 14:14 | 52.36167 | 4.77586 | 6811 ft | 241 kts | 346° |
| 2026-05-04 14:14 | 52.37548 | 4.76326 | 6718 ft | 226 kts | 306° |
| 2026-05-04 14:15 | 52.37762 | 4.71527 | 6525 ft | 223 kts | 256° |
| 2026-05-04 14:15 | 52.36950 | 4.66647 | 6311 ft | 221 kts | 239° |
| 2026-05-04 14:16 | 52.34879 | 4.62934 | 6107 ft | 221 kts | 224° |
| 2026-05-04 14:16 | 52.33821 | 4.61100 | 6004 ft | 221 kts | 228° |
| 2026-05-04 14:17 | 52.32047 | 4.57024 | 5790 ft | 220 kts | 238° |
| 2026-05-04 14:17 | 52.31240 | 4.54883 | 5692 ft | 222 kts | 238° |
| 2026-05-04 14:17 | 52.29619 | 4.50563 | 4795 ft | 219 kts | 238° |
| 2026-05-04 14:18 | 52.28833 | 4.48487 | 4319 ft | 217 kts | 238° |
| 2026-05-04 14:18 | 52.27219 | 4.44343 | 3579 ft | 216 kts | 238° |
| 2026-05-04 14:19 | 52.25033 | 4.41217 | 2965 ft | 215 kts | 194° |
| 2026-05-04 14:19 | 52.23573 | 4.41205 | 2779 ft | 208 kts | 164° |
| 2026-05-04 14:19 | 52.22319 | 4.42307 | 2484 ft | 208 kts | 135° |
| 2026-05-04 14:19 | 52.21572 | 4.44277 | 2286 ft | 201 kts | 105° |
| 2026-05-04 14:20 | 52.21307 | 4.46426 | 2139 ft | 189 kts | 100° |
| 2026-05-04 14:20 | 52.21065 | 4.48520 | 2049 ft | 188 kts | 100° |
| 2026-05-04 14:20 | 52.20899 | 4.50555 | 2028 ft | 172 kts | 89° |
| 2026-05-04 14:21 | 52.21398 | 4.53983 | 2033 ft | 149 kts | 60° |
| 2026-05-04 14:21 | 52.21903 | 4.55447 | 2029 ft | 147 kts | 58° |
| 2026-05-04 14:21 | 52.22428 | 4.56873 | 2026 ft | 147 kts | 57° |
| 2026-05-04 14:21 | 52.22968 | 4.58283 | 2018 ft | 146 kts | 56° |
| 2026-05-04 14:22 | 52.23505 | 4.59674 | 1982 ft | 147 kts | 55° |
| 2026-05-04 14:22 | 52.24052 | 4.61111 | 1857 ft | 147 kts | 55° |
| 2026-05-04 14:22 | 52.24595 | 4.62515 | 1704 ft | 147 kts | 55° |
| 2026-05-04 14:22 | 52.25136 | 4.63913 | 1394 ft | 143 kts | 56° |
| 2026-05-04 14:23 | 52.26176 | 4.66642 | 1052 ft | 141 kts | 54° |
| 2026-05-04 14:23 | 52.26701 | 4.67985 | 833 ft | 140 kts | 54° |
| 2026-05-04 14:23 | 52.27215 | 4.69330 | 645 ft | 139 kts | 54° |
| 2026-05-04 14:24 | 52.27726 | 4.70657 | 442 ft | 139 kts | 55° |
| 2026-05-04 14:24 | 52.28243 | 4.71984 | 257 ft | 138 kts | 52° |
| 2026-05-04 14:24 | 52.28749 | 4.73308 | 110 ft | 137 kts | 55° |
| 2026-05-04 14:24 | 52.29247 | 4.74586 | 4 ft | 124 kts | 56° |
| 2026-05-04 14:25 | 52.29622 | 4.75568 | -1 ft | 78 kts | 60° |
| 2026-05-04 14:25 | 52.29847 | 4.76160 | -6 ft | 2 kts | 56° |
| 2026-05-04 14:25 | 52.29881 | 4.76244 | -6 ft | 17 kts | 57° |
| 2026-05-04 14:26 | 52.29960 | 4.76436 | -5 ft | 21 kts | 51° |
| 2026-05-04 14:26 | 52.30072 | 4.76573 | -3 ft | 15 kts | 29° |
| 2026-05-04 14:26 | 52.30092 | 4.76591 | -3 ft | 1 kts | 29° |
| 2026-05-04 14:26 | 52.30103 | 4.76600 | -3 ft | 3 kts | 28° |
| 2026-05-04 14:27 | 52.30123 | 4.76617 | -2 ft | 4 kts | 27° |
| 2026-05-04 14:27 | 52.30150 | 4.76638 | -2 ft | 5 kts | 25° |
| 2026-05-04 14:27 | 52.30193 | 4.76673 | -2 ft | 9 kts | 28° |
| 2026-05-04 14:27 | 52.30257 | 4.76729 | -3 ft | 12 kts | 26° |
| 2026-05-04 14:28 | 52.30311 | 4.76737 | -3 ft | 0 kts | 346° |
| 2026-05-04 14:28 | 52.30319 | 4.76731 | -3 ft | 2 kts | 333° |
| 2026-05-04 14:28 | 52.30339 | 4.76702 | -3 ft | 5 kts | 314° |
| 2026-05-04 14:28 | 52.30373 | 4.76654 | -2 ft | 8 kts | 327° |
| 2026-05-04 14:29 | 52.30422 | 4.76659 | -2 ft | 1 kts | 26° |
| 2026-05-04 14:29 | 52.30423 | 4.76659 | -2 ft | 0 kts | 26° |